Time;durP1;ratioP1;P1;durP2;ratioP2;P2;SDS_P1;SDS_P2;PMS_P1;PMS_P2;Temp;Humidity;BMP_temperature;BMP_pressure;BME280_temperature;BME280_humidity;BME280_pressure;Samples;Min_cycle;Max_cycle;Signal;HPM_P1;HPM_P2
2022/12/02 00:01:49;;;;;;;49.97;33.67;;;6.80;99.90;;;;;;5014901;28;20173;-84
2022/12/02 00:04:23;;;;;;;54.07;34.73;;;6.80;99.90;;;;;;5004205;28;20206;-84
2022/12/02 00:06:51;;;;;;;60.63;37.07;;;6.70;99.90;;;;;;5019792;28;20231;-78
2022/12/02 00:09:30;;;;;;;55.70;36.17;;;6.90;99.90;;;;;;5020503;28;20186;-82
2022/12/02 00:12:00;;;;;;;52.40;34.73;;;6.80;99.90;;;;;;5021019;28;20178;-84
2022/12/02 00:14:39;;;;;;;55.37;35.33;;;6.70;99.90;;;;;;5020864;28;20170;-83
2022/12/02 00:17:08;;;;;;;57.73;34.93;;;6.60;99.90;;;;;;5014247;28;20159;-86
2022/12/02 00:19:35;;;;;;;54.67;35.43;;;6.60;99.90;;;;;;5003325;28;20174;-85
2022/12/02 00:22:33;;;;;;;55.17;34.83;;;6.70;99.90;;;;;;5002066;28;20174;-86
2022/12/02 00:25:03;;;;;;;50.93;32.43;;;6.70;99.90;;;;;;4999063;28;20179;-84
2022/12/02 00:27:31;;;;;;;52.60;35.30;;;6.60;99.90;;;;;;5000060;28;20206;-86
2022/12/02 00:29:56;;;;;;;53.53;33.73;;;6.60;99.90;;;;;;4999371;28;20155;-85
2022/12/02 00:32:22;;;;;;;53.70;34.33;;;6.60;99.90;;;;;;4998730;28;20182;-86
2022/12/02 00:34:48;;;;;;;53.17;34.00;;;6.50;99.90;;;;;;4998250;28;20175;-86
2022/12/02 00:37:13;;;;;;;52.63;35.03;;;6.60;99.90;;;;;;4998468;28;20171;-86
2022/12/02 00:39:39;;;;;;;55.93;33.10;;;6.60;99.90;;;;;;4996885;28;20239;-85
2022/12/02 00:42:05;;;;;;;52.37;34.17;;;6.60;99.90;;;;;;4999455;28;20179;-86
2022/12/02 00:47:15;;;;;;;50.57;32.00;;;6.40;99.90;;;;;;4997178;28;20205;-86
2022/12/02 00:49:41;;;;;;;48.73;31.50;;;6.40;99.90;;;;;;4996767;28;20203;-86
2022/12/02 00:52:07;;;;;;;56.73;33.90;;;6.30;99.90;;;;;;4996795;28;20598;-85
2022/12/02 00:54:33;;;;;;;54.70;34.37;;;6.20;99.90;;;;;;4997290;28;20187;-86
2022/12/02 00:57:00;;;;;;;53.97;32.87;;;6.30;99.90;;;;;;4996382;28;20570;-86
2022/12/02 00:59:25;;;;;;;56.73;33.20;;;6.30;99.90;;;;;;4994588;28;20179;-86
2022/12/02 01:01:51;;;;;;;55.33;35.17;;;6.30;99.90;;;;;;4996318;28;20660;-85
2022/12/02 01:04:16;;;;;;;59.53;35.93;;;6.30;99.90;;;;;;4996452;28;20270;-87
2022/12/02 01:06:42;;;;;;;52.57;34.13;;;6.40;99.90;;;;;;4999322;28;20215;-86
2022/12/02 01:09:09;;;;;;;58.63;35.13;;;6.40;99.90;;;;;;4995465;28;20270;-80
2022/12/02 01:11:34;;;;;;;53.93;33.30;;;6.40;99.90;;;;;;4995514;28;20663;-84
2022/12/02 01:14:00;;;;;;;57.40;33.80;;;6.40;99.90;;;;;;4994406;28;20175;-85
2022/12/02 01:16:26;;;;;;;53.57;34.97;;;6.30;99.90;;;;;;4994291;28;20183;-80
2022/12/02 01:18:52;;;;;;;51.10;33.00;;;6.30;99.90;;;;;;4995025;28;20612;-79
2022/12/02 01:21:18;;;;;;;53.13;34.20;;;6.30;99.90;;;;;;4995013;28;20201;-81
2022/12/02 01:23:43;;;;;;;54.53;34.93;;;6.30;99.90;;;;;;4993912;28;20209;-80
2022/12/02 01:26:09;;;;;;;59.50;35.87;;;6.40;99.90;;;;;;4994267;28;20675;-79
2022/12/02 01:28:34;;;;;;;55.50;33.63;;;6.50;99.90;;;;;;4977577;28;20755;-78
2022/12/02 01:31:00;;;;;;;54.63;35.60;;;6.40;99.90;;;;;;4994505;28;20206;-79
2022/12/02 01:33:26;;;;;;;52.83;33.90;;;6.40;99.90;;;;;;4994708;28;20173;-79
2022/12/02 01:35:51;;;;;;;56.37;35.17;;;6.40;99.90;;;;;;4977345;28;20175;-79
2022/12/02 01:38:17;;;;;;;52.97;32.77;;;6.30;99.90;;;;;;4977003;28;20273;-81
2022/12/02 01:40:44;;;;;;;53.73;35.07;;;6.30;99.90;;;;;;4994160;28;20221;-79
2022/12/02 01:43:11;;;;;;;53.10;33.70;;;6.30;99.90;;;;;;4994505;28;20210;-79
2022/12/02 01:45:36;;;;;;;54.33;34.90;;;6.30;99.90;;;;;;4994738;28;20509;-79
2022/12/02 01:48:03;;;;;;;53.40;33.23;;;6.30;99.90;;;;;;5000373;28;20725;-84
2022/12/02 01:50:30;;;;;;;55.37;33.20;;;6.40;99.90;;;;;;5003192;28;20171;-82
2022/12/02 01:52:56;;;;;;;52.83;35.37;;;6.30;99.90;;;;;;4998744;28;20203;-83
2022/12/02 01:55:24;;;;;;;50.67;32.33;;;6.50;99.90;;;;;;5003418;28;20174;-85
2022/12/02 01:57:50;;;;;;;54.00;34.67;;;6.50;99.90;;;;;;4999756;28;20179;-85
2022/12/02 02:00:16;;;;;;;53.00;33.93;;;6.50;99.90;;;;;;4998534;28;20175;-85
2022/12/02 02:02:44;;;;;;;50.90;32.83;;;6.50;99.90;;;;;;5000433;28;20175;-83
2022/12/02 02:05:22;;;;;;;51.17;33.27;;;6.40;99.90;;;;;;4984255;28;20198;-86
2022/12/02 02:07:51;;;;;;;55.63;34.03;;;6.40;99.90;;;;;;5002193;28;20760;-85
2022/12/02 02:10:18;;;;;;;52.00;35.30;;;6.40;99.90;;;;;;4996864;28;20167;-86
2022/12/02 02:12:45;;;;;;;53.33;33.40;;;6.30;99.90;;;;;;4976861;28;20183;-86
2022/12/02 02:15:12;;;;;;;57.40;35.00;;;6.30;99.90;;;;;;4994939;28;20167;-85
2022/12/02 02:17:38;;;;;;;57.43;34.37;;;6.40;99.90;;;;;;4993950;28;20635;-85
2022/12/02 02:20:09;;;;;;;56.73;35.67;;;6.40;99.90;;;;;;4994505;28;20620;-84
2022/12/02 02:23:00;;;;;;;51.90;33.57;;;6.40;99.90;;;;;;4994044;28;20182;-84
2022/12/02 02:25:25;;;;;;;54.73;33.83;;;6.30;99.90;;;;;;4995950;28;20564;-85
2022/12/02 02:27:58;;;;;;;54.23;34.53;;;6.30;99.90;;;;;;4995920;28;20253;-85
2022/12/02 02:30:27;;;;;;;55.03;33.37;;;6.30;99.90;;;;;;4995424;28;20171;-83
2022/12/02 02:32:53;;;;;;;51.37;33.60;;;6.40;99.90;;;;;;4996557;28;20652;-84
2022/12/02 02:35:20;;;;;;;57.27;33.07;;;6.40;99.90;;;;;;4996932;28;20190;-85
2022/12/02 02:37:47;;;;;;;52.60;32.90;;;6.40;99.90;;;;;;4998271;28;20270;-84
2022/12/02 02:40:15;;;;;;;54.17;33.73;;;6.40;99.90;;;;;;5011778;28;20155;-82
2022/12/02 02:42:43;;;;;;;52.63;32.67;;;6.30;99.90;;;;;;5018640;28;20175;-83
2022/12/02 02:45:10;;;;;;;57.83;34.53;;;6.20;99.90;;;;;;5017330;28;20219;-85
2022/12/02 02:47:35;;;;;;;56.37;34.37;;;6.30;99.90;;;;;;5011924;28;20274;-84
2022/12/02 02:50:04;;;;;;;56.13;32.97;;;6.30;99.90;;;;;;5000467;28;20199;-84
2022/12/02 02:52:32;;;;;;;61.97;34.73;;;6.30;99.90;;;;;;4995368;28;20214;-84
2022/12/02 02:54:57;;;;;;;62.53;35.90;;;6.20;99.90;;;;;;5001360;28;20175;-84
2022/12/02 02:57:24;;;;;;;57.20;32.93;;;6.10;99.90;;;;;;5000249;28;20189;-81
2022/12/02 02:59:53;;;;;;;61.00;37.23;;;6.10;99.90;;;;;;4997180;28;20210;-86
2022/12/02 03:02:20;;;;;;;57.67;34.43;;;6.00;99.90;;;;;;4978534;28;20175;-86
2022/12/02 03:04:46;;;;;;;64.93;37.50;;;6.20;99.90;;;;;;4995447;28;20163;-85
2022/12/02 03:07:12;;;;;;;58.73;34.13;;;6.10;99.90;;;;;;4976451;28;20202;-86
2022/12/02 03:09:38;;;;;;;62.67;36.47;;;6.10;99.90;;;;;;4994835;28;20213;-86
2022/12/02 03:12:05;;;;;;;61.37;33.93;;;6.20;99.90;;;;;;4996253;28;20265;-86
2022/12/02 03:14:30;;;;;;;58.97;36.07;;;6.10;99.90;;;;;;4997635;28;20181;-86
2022/12/02 03:16:59;;;;;;;62.00;35.23;;;6.00;99.90;;;;;;4998345;28;20167;-85
2022/12/02 03:19:26;;;;;;;66.33;36.77;;;6.00;99.90;;;;;;4997515;28;20174;-86
2022/12/02 03:21:52;;;;;;;61.37;35.97;;;5.90;99.90;;;;;;4998663;28;20650;-86
2022/12/02 03:24:18;;;;;;;60.53;35.83;;;6.00;99.90;;;;;;5003327;28;20214;-80
2022/12/02 03:26:44;;;;;;;66.73;38.20;;;6.00;99.90;;;;;;5002693;28;20471;-80
2022/12/02 03:29:12;;;;;;;62.10;36.23;;;6.10;99.90;;;;;;4998041;28;20247;-81
2022/12/02 03:31:38;;;;;;;65.20;37.70;;;6.10;99.90;;;;;;4997566;28;20255;-80
2022/12/02 03:34:06;;;;;;;61.07;33.83;;;6.10;99.90;;;;;;4997915;28;20174;-81
2022/12/02 03:36:31;;;;;;;61.23;34.93;;;6.00;99.90;;;;;;4997391;28;20171;-80
2022/12/02 03:38:57;;;;;;;61.53;33.47;;;6.10;99.90;;;;;;4996948;28;20244;-78
2022/12/02 03:41:25;;;;;;;62.47;34.53;;;6.10;99.90;;;;;;4997925;28;20170;-84
2022/12/02 03:43:51;;;;;;;67.13;37.47;;;6.10;99.90;;;;;;4979610;28;20171;-86
2022/12/02 03:46:17;;;;;;;64.63;36.27;;;6.10;99.90;;;;;;4997571;28;20164;-86
2022/12/02 03:48:43;;;;;;;63.60;35.10;;;6.00;99.90;;;;;;4998012;28;20211;-86
2022/12/02 03:51:10;;;;;;;62.53;35.67;;;6.00;99.90;;;;;;4979568;28;20173;-80
2022/12/02 03:53:36;;;;;;;70.20;39.47;;;6.20;99.90;;;;;;4979960;28;20206;-80
2022/12/02 03:56:06;;;;;;;68.00;38.60;;;6.10;99.90;;;;;;4996057;28;20274;-81
2022/12/02 03:58:46;;;;;;;65.93;36.67;;;6.10;99.90;;;;;;5001607;28;20167;-77
2022/12/02 04:01:13;;;;;;;68.87;37.63;;;6.10;99.90;;;;;;5001750;28;20197;-78
2022/12/02 04:03:38;;;;;;;65.70;38.50;;;6.20;99.90;;;;;;5001387;28;20171;-79
2022/12/02 04:06:04;;;;;;;64.97;37.53;;;6.20;99.90;;;;;;4996520;28;20833;-79
2022/12/02 04:08:30;;;;;;;68.70;37.53;;;6.20;99.90;;;;;;4994600;28;20762;-78
2022/12/02 04:10:55;;;;;;;67.20;38.90;;;6.20;99.90;;;;;;4996189;28;20643;-79
2022/12/02 04:13:22;;;;;;;67.30;39.30;;;6.20;99.90;;;;;;4996434;28;20163;-78
2022/12/02 04:15:48;;;;;;;71.10;38.30;;;6.20;99.90;;;;;;4996437;28;20178;-78
2022/12/02 04:18:14;;;;;;;64.47;35.70;;;6.20;99.90;;;;;;4995600;28;20175;-78
2022/12/02 04:20:39;;;;;;;67.60;37.30;;;6.20;99.90;;;;;;4995588;28;20544;-81
2022/12/02 04:23:05;;;;;;;70.10;37.17;;;6.20;99.90;;;;;;4995704;28;20181;-80
2022/12/02 04:25:31;;;;;;;66.97;38.97;;;6.20;99.90;;;;;;4996360;28;20170;-80
2022/12/02 04:27:57;;;;;;;62.50;36.73;;;6.20;99.90;;;;;;4996624;28;20210;-85
2022/12/02 04:30:22;;;;;;;69.50;36.90;;;6.20;99.90;;;;;;4997138;28;20177;-85
2022/12/02 04:32:48;;;;;;;63.63;37.50;;;6.20;99.90;;;;;;4997634;28;20178;-83
2022/12/02 04:35:14;;;;;;;67.27;37.30;;;6.10;99.90;;;;;;4998539;28;20175;-84
2022/12/02 04:37:39;;;;;;;62.93;38.07;;;6.20;99.90;;;;;;4998053;28;20643;-84
2022/12/02 04:40:05;;;;;;;72.37;38.63;;;6.20;99.90;;;;;;4999022;28;20676;-84
2022/12/02 04:42:31;;;;;;;64.40;35.10;;;6.10;99.90;;;;;;5000241;28;20175;-83
2022/12/02 04:45:00;;;;;;;68.40;37.40;;;6.10;99.90;;;;;;5008000;28;20223;-84
2022/12/02 04:47:26;;;;;;;70.20;36.80;;;6.10;99.90;;;;;;4999493;28;20210;-86
2022/12/02 04:49:51;;;;;;;66.77;37.30;;;6.10;99.90;;;;;;4996186;28;20175;-86
2022/12/02 04:52:17;;;;;;;71.23;38.67;;;6.00;99.90;;;;;;4995998;28;20199;-85
2022/12/02 04:54:43;;;;;;;72.73;39.70;;;6.00;99.90;;;;;;4997477;28;20624;-86
2022/12/02 04:57:08;;;;;;;62.00;36.30;;;6.10;99.90;;;;;;5001564;28;20174;-85
2022/12/02 04:59:34;;;;;;;71.80;39.10;;;6.10;99.90;;;;;;5002152;28;20175;-85
2022/12/02 05:02:00;;;;;;;80.93;36.67;;;6.00;99.90;;;;;;4999570;28;20230;-84
2022/12/02 05:04:27;;;;;;;72.47;38.93;;;6.10;99.90;;;;;;4997996;28;20217;-83
2022/12/02 05:06:53;;;;;;;65.67;36.03;;;6.10;99.90;;;;;;4982022;28;20631;-85
2022/12/02 05:09:20;;;;;;;80.43;40.73;;;5.90;99.90;;;;;;5003171;28;20215;-86
2022/12/02 05:11:45;;;;;;;68.87;39.03;;;5.90;99.90;;;;;;5003142;28;20167;-84
2022/12/02 05:14:11;;;;;;;71.00;38.93;;;6.00;99.90;;;;;;5002295;28;20202;-83
2022/12/02 05:16:40;;;;;;;74.57;38.97;;;6.00;99.90;;;;;;5000870;28;20170;-84
2022/12/02 05:19:30;;;;;;;74.77;36.90;;;5.90;99.90;;;;;;5010043;28;20183;-84
2022/12/02 05:21:57;;;;;;;75.47;39.53;;;5.90;99.90;;;;;;4996549;28;20175;-84
2022/12/02 05:24:47;;;;;;;73.73;39.40;;;5.90;99.90;;;;;;5000887;28;20171;-85
2022/12/02 05:27:13;;;;;;;77.27;37.97;;;5.90;99.90;;;;;;4997767;28;20213;-84
2022/12/02 05:29:38;;;;;;;76.63;37.67;;;5.90;99.90;;;;;;4982491;28;20190;-85
2022/12/02 05:32:04;;;;;;;82.23;41.23;;;5.90;99.90;;;;;;4999729;28;20175;-85
2022/12/02 05:34:30;;;;;;;73.43;39.73;;;6.00;99.90;;;;;;4998188;28;20655;-84
2022/12/02 05:36:56;;;;;;;83.33;41.83;;;5.90;99.90;;;;;;4998832;28;20183;-81
2022/12/02 05:39:22;;;;;;;80.63;41.53;;;6.00;99.90;;;;;;4996770;28;20195;-80
2022/12/02 05:41:49;;;;;;;83.97;41.40;;;5.90;99.90;;;;;;4979361;28;20183;-82
2022/12/02 05:44:23;;;;;;;85.80;41.30;;;5.90;99.90;;;;;;4996570;28;20195;-80
2022/12/02 05:46:49;;;;;;;82.17;40.60;;;5.80;99.90;;;;;;4995711;28;20225;-84
2022/12/02 05:49:23;;;;;;;85.63;40.73;;;5.90;99.90;;;;;;5013356;28;20187;-77
2022/12/02 05:51:55;;;;;;;82.80;41.67;;;5.80;99.90;;;;;;5017171;28;20170;-82
2022/12/02 05:54:21;;;;;;;81.00;43.47;;;5.80;99.90;;;;;;4999843;28;20159;-83
2022/12/02 05:56:47;;;;;;;80.13;39.10;;;5.80;99.90;;;;;;5018146;28;20214;-83
2022/12/02 05:59:19;;;;;;;84.57;42.80;;;5.80;99.90;;;;;;5017714;28;20178;-82
2022/12/02 06:01:52;;;;;;;85.33;42.87;;;5.90;99.90;;;;;;5012882;28;20969;-81
2022/12/02 06:04:30;;;;;;;81.80;40.43;;;6.00;99.90;;;;;;5004304;28;20143;-81
2022/12/02 06:07:00;;;;;;;85.10;42.23;;;5.90;99.90;;;;;;5005197;28;20174;-84
2022/12/02 06:09:37;;;;;;;83.60;41.07;;;6.00;99.90;;;;;;4991200;28;20174;-82
2022/12/02 06:12:31;;;;;;;78.50;40.37;;;6.00;99.90;;;;;;4995405;28;20639;-83
2022/12/02 06:14:58;;;;;;;76.50;37.33;;;5.90;99.90;;;;;;4995217;28;20171;-84
2022/12/02 06:17:24;;;;;;;77.43;39.13;;;5.90;99.90;;;;;;4994576;28;20166;-85
2022/12/02 06:19:55;;;;;;;85.73;41.57;;;5.90;99.90;;;;;;4978452;28;20519;-81
2022/12/02 06:22:29;;;;;;;82.83;39.67;;;5.80;99.90;;;;;;4997332;28;20163;-84
2022/12/02 06:24:56;;;;;;;82.67;41.20;;;5.90;99.90;;;;;;4998939;28;20179;-79
2022/12/02 06:27:22;;;;;;;83.10;39.37;;;5.80;99.90;;;;;;4989439;28;20250;-85
2022/12/02 06:30:06;;;;;;;78.03;38.87;;;5.90;99.90;;;;;;4983313;28;20221;-79
2022/12/02 06:32:42;;;;;;;78.00;38.77;;;5.90;99.90;;;;;;4989298;28;20194;-79
2022/12/02 06:35:29;;;;;;;78.50;39.93;;;5.90;99.90;;;;;;4959492;28;20219;-79
2022/12/02 06:38:01;;;;;;;74.30;38.90;;;5.90;99.90;;;;;;4974125;28;20652;-78
2022/12/02 06:40:32;;;;;;;69.97;38.27;;;5.90;99.90;;;;;;4985665;28;20163;-79
2022/12/02 06:43:00;;;;;;;70.93;35.53;;;5.90;99.90;;;;;;4992407;28;20181;-78
2022/12/02 06:45:32;;;;;;;82.47;41.30;;;5.80;99.90;;;;;;4994402;28;20171;-79
2022/12/02 06:48:06;;;;;;;81.57;40.77;;;5.80;99.90;;;;;;4997250;28;20209;-80
2022/12/02 06:50:40;;;;;;;84.83;42.50;;;6.00;99.90;;;;;;4997613;28;20202;-80
2022/12/02 06:53:23;;;;;;;83.50;40.90;;;5.80;99.90;;;;;;4996368;28;20565;-81
2022/12/02 06:55:57;;;;;;;94.03;42.90;;;5.80;99.90;;;;;;4995833;28;20647;-80
2022/12/02 06:58:27;;;;;;;80.87;41.53;;;5.80;99.90;;;;;;4997183;28;20170;-82
2022/12/02 07:00:58;;;;;;;90.67;41.17;;;5.90;99.90;;;;;;4993491;28;20250;-83
2022/12/02 07:03:31;;;;;;;82.37;40.70;;;5.80;99.90;;;;;;4996746;28;20185;-82
2022/12/02 07:06:12;;;;;;;78.57;36.77;;;5.70;99.90;;;;;;4992143;28;20195;-82
2022/12/02 07:08:38;;;;;;;84.33;40.47;;;5.60;99.90;;;;;;4979506;28;20202;-81
2022/12/02 07:11:48;;;;;;;77.43;38.83;;;5.70;99.90;;;;;;4979820;28;20171;-82
2022/12/02 07:14:28;;;;;;;71.93;37.20;;;5.70;99.90;;;;;;4997764;28;20186;-88
2022/12/02 07:16:57;;;;;;;69.97;35.90;;;5.60;99.90;;;;;;4997936;28;20215;-88
2022/12/02 07:19:29;;;;;;;70.07;34.43;;;5.60;99.90;;;;;;5004836;28;20161;-86
2022/12/02 07:21:55;;;;;;;71.70;31.30;;;5.50;99.90;;;;;;5000343;28;20647;-86
2022/12/02 07:24:21;;;;;;;73.13;38.27;;;5.50;99.90;;;;;;5001803;28;20186;-83
2022/12/02 07:26:48;;;;;;;69.93;35.50;;;5.40;99.90;;;;;;5017654;28;20155;-84
2022/12/02 07:29:27;;;;;;;69.40;36.13;;;5.30;99.90;;;;;;4998366;28;20190;-84
2022/12/02 07:31:52;;;;;;;60.80;27.93;;;5.30;99.90;;;;;;5013584;28;20163;-87
2022/12/02 07:34:18;;;;;;;55.90;28.67;;;5.20;99.90;;;;;;5010149;28;20270;-87
2022/12/02 07:36:43;;;;;;;55.70;30.73;;;5.10;99.90;;;;;;5007589;28;20182;-87
2022/12/02 07:39:12;;;;;;;45.53;24.73;;;5.10;99.90;;;;;;5003886;28;20175;-86
2022/12/02 07:41:39;;;;;;;47.30;22.70;;;5.10;99.90;;;;;;5005059;28;20177;-87
2022/12/02 07:44:05;;;;;;;57.87;28.27;;;5.10;99.90;;;;;;5001892;28;20261;-87
2022/12/02 07:46:32;;;;;;;57.07;28.23;;;5.10;99.90;;;;;;5008452;28;20159;-86
2022/12/02 07:48:59;;;;;;;55.40;28.67;;;5.10;99.90;;;;;;5020203;28;20198;-80
2022/12/02 07:51:25;;;;;;;55.53;30.20;;;5.10;99.90;;;;;;5020943;28;20183;-86
2022/12/02 07:53:51;;;;;;;55.20;29.73;;;5.20;99.90;;;;;;5020464;28;20256;-85
2022/12/02 07:56:17;;;;;;;55.03;27.63;;;5.10;99.90;;;;;;5019924;28;20234;-86
2022/12/02 07:58:49;;;;;;;54.23;29.07;;;5.10;99.90;;;;;;5013123;28;20207;-87
2022/12/02 08:01:15;;;;;;;48.53;27.00;;;5.20;99.90;;;;;;4998274;28;20179;-88
2022/12/02 08:03:41;;;;;;;50.97;28.30;;;5.40;99.90;;;;;;4998506;28;20178;-81
2022/12/02 08:06:07;;;;;;;54.00;29.93;;;5.20;99.90;;;;;;4998209;28;20270;-84
2022/12/02 08:08:33;;;;;;;50.40;28.77;;;5.20;99.90;;;;;;4999590;28;20227;-87
2022/12/02 08:10:58;;;;;;;53.43;25.97;;;5.30;99.90;;;;;;4998317;28;20214;-86
2022/12/02 08:13:24;;;;;;;51.43;27.17;;;5.20;99.50;;;;;;4997235;28;20731;-78
2022/12/02 08:15:50;;;;;;;51.20;27.83;;;5.10;98.70;;;;;;4996240;28;20183;-78
2022/12/02 08:18:15;;;;;;;51.37;26.83;;;5.10;98.90;;;;;;4997229;28;20183;-78
2022/12/02 08:20:42;;;;;;;46.23;24.27;;;5.10;99.10;;;;;;4997538;28;20250;-79
2022/12/02 08:23:08;;;;;;;50.03;26.13;;;5.10;99.60;;;;;;5008474;28;20215;-82
2022/12/02 08:25:33;;;;;;;49.13;27.50;;;5.00;99.20;;;;;;5013410;28;20198;-77
2022/12/02 08:27:59;;;;;;;51.13;26.43;;;5.00;99.10;;;;;;5006478;28;20285;-77
2022/12/02 08:30:24;;;;;;;44.47;24.60;;;5.00;98.70;;;;;;5006105;28;20171;-79
2022/12/02 08:32:52;;;;;;;47.47;25.20;;;4.90;97.60;;;;;;5003183;28;20163;-79
2022/12/02 08:36:03;;;;;;;45.23;23.13;;;4.80;98.10;;;;;;4982808;28;20209;-77
2022/12/02 08:38:28;;;;;;;46.57;23.27;;;4.80;98.20;;;;;;5008948;28;20242;-81
2022/12/02 08:40:55;;;;;;;52.27;28.17;;;4.80;98.80;;;;;;5002281;28;20210;-79
2022/12/02 08:43:22;;;;;;;56.90;28.53;;;4.80;99.20;;;;;;5001775;28;20181;-81
2022/12/02 08:45:47;;;;;;;50.47;25.57;;;4.90;99.30;;;;;;5003574;28;20209;-79
2022/12/02 08:48:13;;;;;;;51.57;25.57;;;4.80;97.80;;;;;;4998944;28;20202;-80
2022/12/02 08:50:43;;;;;;;54.00;29.37;;;4.80;97.10;;;;;;5002071;28;20171;-78
2022/12/02 08:53:10;;;;;;;50.97;28.27;;;4.80;97.40;;;;;;4981992;28;20191;-81
2022/12/02 08:55:36;;;;;;;57.70;29.80;;;4.90;97.30;;;;;;5000814;28;20222;-81
2022/12/02 08:58:02;;;;;;;54.10;29.47;;;5.00;97.10;;;;;;4997232;28;20237;-79
2022/12/02 09:00:35;;;;;;;53.83;27.70;;;5.00;96.80;;;;;;5002057;28;20171;-80
2022/12/02 09:03:01;;;;;;;53.27;29.13;;;4.70;96.40;;;;;;5000431;28;20246;-80
2022/12/02 09:05:27;;;;;;;55.67;27.03;;;4.80;96.30;;;;;;5000012;28;20222;-83
2022/12/02 09:07:52;;;;;;;48.57;25.97;;;4.80;96.30;;;;;;5004183;28;20685;-81
2022/12/02 09:10:20;;;;;;;45.40;24.20;;;4.80;96.20;;;;;;5004508;28;20278;-79
2022/12/02 09:12:46;;;;;;;44.50;24.83;;;4.80;94.90;;;;;;5000742;28;20242;-81
2022/12/02 09:15:13;;;;;;;54.33;25.83;;;4.70;94.80;;;;;;4996380;28;20203;-82
2022/12/02 09:17:40;;;;;;;49.47;27.00;;;4.70;94.40;;;;;;4996178;28;20254;-81
2022/12/02 09:20:07;;;;;;;45.97;24.27;;;4.70;94.40;;;;;;4997622;28;20175;-81
2022/12/02 09:22:32;;;;;;;45.67;24.10;;;4.80;94.60;;;;;;4997507;28;20204;-80
2022/12/02 09:24:58;;;;;;;50.77;24.90;;;4.80;94.00;;;;;;4996429;28;20171;-79
2022/12/02 09:27:31;;;;;;;48.30;25.53;;;4.90;93.50;;;;;;5003985;28;20625;-79
2022/12/02 09:29:57;;;;;;;47.07;25.97;;;5.00;93.30;;;;;;4996380;28;20171;-78
2022/12/02 09:32:24;;;;;;;43.67;25.30;;;4.80;92.00;;;;;;4996311;28;20606;-78
2022/12/02 09:34:49;;;;;;;42.40;19.93;;;5.00;91.50;;;;;;4995867;28;20284;-78
2022/12/02 09:37:16;;;;;;;46.77;23.33;;;4.80;91.00;;;;;;4995999;28;20642;-78
2022/12/02 09:39:41;;;;;;;45.70;24.23;;;4.70;91.70;;;;;;4995939;28;20652;-79
2022/12/02 09:42:10;;;;;;;38.03;20.80;;;4.70;92.10;;;;;;4996231;28;20167;-78
2022/12/02 09:44:37;;;;;;;49.70;24.00;;;4.70;91.90;;;;;;4996742;28;20250;-78
2022/12/02 09:47:03;;;;;;;44.43;23.10;;;4.70;92.50;;;;;;4995774;28;20249;-78
2022/12/02 09:49:30;;;;;;;40.57;19.10;;;4.70;92.20;;;;;;4995959;28;20164;-79
2022/12/02 09:52:00;;;;;;;39.03;21.33;;;4.70;91.50;;;;;;5002454;28;20679;-82
2022/12/02 09:54:26;;;;;;;41.30;20.50;;;4.70;92.50;;;;;;5017727;28;20182;-78
2022/12/02 09:56:52;;;;;;;40.03;20.60;;;4.60;91.70;;;;;;5017883;28;20163;-81
2022/12/02 09:59:17;;;;;;;38.07;21.03;;;4.70;92.80;;;;;;5018392;28;20163;-83
2022/12/02 10:01:46;;;;;;;45.73;22.97;;;4.40;92.80;;;;;;5017857;28;20167;-86
2022/12/02 10:04:21;;;;;;;44.53;22.13;;;4.60;93.50;;;;;;5003845;28;20181;-87
2022/12/02 10:06:47;;;;;;;44.17;22.00;;;4.60;94.20;;;;;;5003224;28;20221;-88
2022/12/02 10:09:25;;;;;;;34.57;18.73;;;4.50;94.20;;;;;;5006617;28;20183;-87
2022/12/02 10:11:51;;;;;;;38.33;21.03;;;4.40;93.90;;;;;;5014395;28;20182;-86
2022/12/02 10:14:16;;;;;;;42.97;22.47;;;4.40;94.90;;;;;;5004416;28;20179;-84
2022/12/02 10:16:43;;;;;;;39.73;21.00;;;4.40;95.60;;;;;;5001340;28;20206;-83
2022/12/02 10:19:17;;;;;;;45.13;21.90;;;4.50;95.40;;;;;;4989132;28;20178;-81
2022/12/02 10:21:43;;;;;;;44.93;22.53;;;4.50;95.00;;;;;;4996578;28;20173;-79
2022/12/02 10:24:10;;;;;;;44.00;19.97;;;4.50;95.10;;;;;;5004571;28;20159;-87
2022/12/02 10:26:54;;;;;;;37.60;20.80;;;4.50;95.30;;;;;;5001407;28;20156;-86
2022/12/02 10:29:28;;;;;;;39.57;20.50;;;4.50;95.30;;;;;;5001191;28;20238;-87
2022/12/02 10:32:03;;;;;;;42.80;21.67;;;4.50;94.70;;;;;;5002802;28;20179;-85
2022/12/02 10:34:31;;;;;;;41.40;21.87;;;4.50;95.40;;;;;;4999932;28;20238;-87
2022/12/02 10:37:25;;;;;;;34.10;18.27;;;4.60;95.00;;;;;;4999522;28;20221;-87
2022/12/02 10:40:15;;;;;;;36.30;18.67;;;4.50;94.60;;;;;;5001983;28;20174;-87
2022/12/02 10:42:42;;;;;;;30.67;15.73;;;4.50;95.10;;;;;;5005978;28;20175;-80
2022/12/02 10:45:16;;;;;;;40.10;20.53;;;4.50;95.00;;;;;;5001366;28;20179;-84
2022/12/02 10:47:44;;;;;;;42.07;20.73;;;4.40;96.10;;;;;;4998811;28;20209;-86
2022/12/02 10:50:19;;;;;;;41.67;19.23;;;4.50;96.30;;;;;;4999237;28;20225;-88
2022/12/02 10:52:48;;;;;;;39.90;19.77;;;4.50;96.00;;;;;;4998976;28;20659;-83
2022/12/02 10:55:15;;;;;;;39.43;21.20;;;4.60;95.40;;;;;;4998079;28;20182;-79
2022/12/02 10:57:44;;;;;;;40.80;22.13;;;4.50;95.60;;;;;;4981525;28;20581;-85
2022/12/02 11:00:17;;;;;;;38.27;18.27;;;4.60;96.20;;;;;;4998402;28;20651;-85
2022/12/02 11:03:04;;;;;;;41.70;20.00;;;4.60;95.20;;;;;;5005543;28;20162;-85
2022/12/02 11:05:39;;;;;;;42.37;20.17;;;4.60;95.90;;;;;;5008234;28;20183;-89
2022/12/02 11:08:17;;;;;;;39.90;21.30;;;4.60;96.10;;;;;;5002189;28;20206;-87
2022/12/02 11:10:45;;;;;;;35.30;19.50;;;4.60;96.20;;;;;;5002638;28;20206;-87
2022/12/02 11:13:20;;;;;;;32.10;18.00;;;4.60;96.40;;;;;;5000773;28;20262;-87
2022/12/02 11:15:48;;;;;;;38.73;19.43;;;4.70;95.50;;;;;;5000701;28;20191;-87
2022/12/02 11:18:31;;;;;;;38.43;19.87;;;4.60;95.10;;;;;;5003497;28;20167;-82
2022/12/02 11:21:05;;;;;;;37.33;20.83;;;4.60;96.40;;;;;;5012510;28;20175;-88
2022/12/02 11:23:33;;;;;;;37.93;18.97;;;4.60;96.80;;;;;;4999882;28;20254;-88
2022/12/02 11:26:05;;;;;;;38.20;18.67;;;4.60;96.50;;;;;;4999363;28;20175;-87
2022/12/02 11:28:57;;;;;;;41.27;20.20;;;4.70;95.50;;;;;;5001459;28;20191;-88
2022/12/02 11:31:24;;;;;;;35.73;19.63;;;4.80;95.90;;;;;;5002146;28;20528;-88
2022/12/02 11:34:00;;;;;;;38.90;20.30;;;4.70;96.40;;;;;;4999416;28;20167;-84
2022/12/02 11:36:35;;;;;;;40.20;22.23;;;4.70;96.30;;;;;;5007428;28;20513;-88
2022/12/02 11:39:04;;;;;;;36.47;18.87;;;4.70;96.50;;;;;;5004387;28;20197;-86
2022/12/02 11:41:53;;;;;;;39.07;20.77;;;4.70;95.90;;;;;;5004361;28;20222;-88
2022/12/02 11:44:27;;;;;;;36.00;19.07;;;4.70;94.70;;;;;;5004729;28;20221;-88
2022/12/02 11:47:01;;;;;;;30.60;17.20;;;4.70;94.40;;;;;;5013833;28;20236;-82
2022/12/02 11:49:39;;;;;;;38.90;19.73;;;4.70;94.80;;;;;;5020631;28;20178;-83
2022/12/02 11:52:08;;;;;;;34.93;17.57;;;4.70;96.00;;;;;;5019542;28;20202;-82
2022/12/02 11:54:39;;;;;;;29.83;15.40;;;4.70;95.40;;;;;;5019998;28;20164;-82
2022/12/02 11:57:14;;;;;;;33.90;18.93;;;4.80;95.50;;;;;;5020778;28;20182;-84
2022/12/02 11:59:40;;;;;;;32.03;17.03;;;4.80;96.20;;;;;;5018273;28;20194;-84
2022/12/02 12:02:18;;;;;;;24.20;13.37;;;4.70;95.20;;;;;;5016720;28;20171;-87
2022/12/02 12:05:06;;;;;;;31.67;16.47;;;4.80;95.90;;;;;;5016390;28;20163;-80
2022/12/02 12:07:56;;;;;;;30.50;16.27;;;4.70;96.40;;;;;;5011570;28;20605;-87
2022/12/02 12:10:39;;;;;;;27.67;14.30;;;4.70;97.50;;;;;;4993635;28;20171;-84
2022/12/02 12:13:23;;;;;;;26.97;12.83;;;4.50;96.50;;;;;;5012018;28;20179;-88
2022/12/02 12:15:59;;;;;;;28.50;15.30;;;4.60;96.30;;;;;;5007078;28;20190;-89
2022/12/02 12:18:49;;;;;;;29.20;16.77;;;4.70;97.10;;;;;;5005139;28;20198;-88
2022/12/02 12:21:32;;;;;;;28.77;15.20;;;4.70;96.70;;;;;;5012178;28;20167;-81
2022/12/02 12:24:16;;;;;;;31.73;16.37;;;4.80;96.10;;;;;;5017200;28;20177;-78
2022/12/02 12:27:04;;;;;;;31.93;17.60;;;4.70;95.50;;;;;;5017899;28;20182;-80
2022/12/02 12:30:24;;;;;;;27.33;14.73;;;4.80;95.70;;;;;;5017214;28;20163;-83
2022/12/02 12:32:50;;;;;;;34.13;18.17;;;4.70;95.60;;;;;;5012785;28;20198;-80
2022/12/02 12:35:35;;;;;;;25.73;14.47;;;4.70;95.60;;;;;;5019318;28;20179;-86
2022/12/02 12:38:01;;;;;;;30.27;17.37;;;4.70;95.60;;;;;;5018508;28;20187;-86
2022/12/02 12:40:26;;;;;;;28.53;16.00;;;4.80;97.00;;;;;;5014923;28;20631;-88
2022/12/02 12:42:55;;;;;;;30.43;16.93;;;4.80;97.40;;;;;;5004541;28;20190;-87
2022/12/02 12:45:25;;;;;;;30.20;17.43;;;4.70;97.50;;;;;;4985775;28;20572;-85
2022/12/02 12:47:51;;;;;;;30.73;18.10;;;4.70;98.20;;;;;;5004093;28;20191;-89
2022/12/02 12:50:18;;;;;;;27.80;16.63;;;4.80;98.40;;;;;;5002250;28;20588;-84
2022/12/02 12:52:44;;;;;;;26.90;14.73;;;4.70;98.10;;;;;;4987236;28;20203;-87